Latest Weather Observations for Moranbah Airport

IDQ60801

Issued at 9:35 am EST Friday 31 October 2014 (issued every 30 minutes, with the page automatically refreshed every 10 minutes)

About weather observations | Map of weather stations | Latest weather observations for QLD | Other Formats
Station Details ID: 034035 Name: MORANBAH AIRPORT Lat: -22.06 Lon: 148.08 Height: 232.2 m
Data from the previous 72 hours. | See also: Recent months at Moranbah Airport
Date/Time
EST
Temp
°C
App
Temp
°C
Dew
Point
Rel
Hum
%
Delta-T
°C
Wind Press
QNH
hPa
Press
MSL
hPa
Rain
since 9 am
mm
Dir
 
Spd
km/h
Gust
km/h
Spd
kts
Gust
kts
31/09:30am 26.3 26.6 16.0 53 6.4 W 9 17 5 9 1016.1 1015.0 0.0
31/09:00am 25.9 26.5 16.7 57 5.7 NW 9 15 5 8 1016.3 1015.2 0.0
31/08:30am 24.7 26.3 16.9 62 4.9 WSW 4 13 2 7 1016.4 1015.3 0.0
31/08:00am 23.3 23.8 16.6 66 4.1 NE 9 15 5 8 1016.3 1015.2 0.0
31/07:30am 22.9 23.5 17.8 73 3.2 ENE 11 15 6 8 1016.2 1015.1 0.0
31/07:00am 21.2 21.3 17.4 79 2.4 E 13 17 7 9 1016.1 1015.0 0.0
31/06:30am 20.7 20.9 17.7 83 1.9 ESE 13 17 7 9 1015.8 1014.7 0.0
31/06:00am 19.6 19.8 17.6 88 1.2 ESE 13 15 7 8 1015.5 1014.3 0.0
31/05:30am 19.0 18.6 17.1 89 1.2 SE 15 19 8 10 1015.2 1014.0 0.0
31/05:00am 18.8 17.9 16.9 89 1.2 SE 17 20 9 11 1015.0 1013.8 0.0
31/04:30am 19.1 18.3 17.2 89 1.2 SSE 17 20 9 11 1014.7 1013.5 0.0
31/04:00am 18.8 18.8 17.1 90 1.0 SSE 13 13 7 7 1014.0 1012.8 0.0
31/03:30am 18.7 18.8 16.5 87 1.3 ESE 11 11 6 6 1013.1 1011.9 0.0
31/03:00am 19.4 19.4 17.2 87 1.4 ESE 13 17 7 9 1013.0 1011.8 0.0
31/02:30am 20.1 19.8 17.3 84 1.7 E 15 19 8 10 1012.8 1011.6 0.0
31/02:00am 20.3 20.3 17.3 83 1.9 ESE 13 17 7 9 1013.3 1012.1 0.0
31/01:30am 20.2 19.8 17.2 83 1.8 E 15 19 8 10 1013.4 1012.2 0.0
31/01:00am 20.2 20.3 16.4 79 2.3 E 11 15 6 8 1013.6 1012.4 0.0
31/12:30am 21.0 20.1 16.8 77 2.6 E 17 19 9 10 1013.7 1012.5 0.0
31/12:00am 21.0 20.4 16.6 76 2.7 E 15 17 8 9 1013.9 1012.7 0.0
 
Date/Time
EST
Temp
°C
App
Temp
°C
Dew
Point
Rel
Hum
%
Delta-T
°C
Wind Press
QNH
hPa
Press
MSL
hPa
Rain
since 9 am
mm
Dir
 
Spd
km/h
Gust
km/h
Spd
kts
Gust
kts
30/11:30pm 21.3 21.0 16.5 74 2.9 E 13 15 7 8 1014.2 1013.0 0.0
30/11:00pm 22.0 22.1 16.5 71 3.4 E 11 13 6 7 1014.6 1013.4 0.0
30/10:30pm 22.4 22.7 16.9 71 3.4 E 11 13 6 7 1014.6 1013.4 0.0
30/10:00pm 22.8 22.9 16.6 68 3.8 E 11 13 6 7 1014.5 1013.3 0.0
30/09:30pm 23.5 23.7 16.8 66 4.2 E 11 15 6 8 1014.0 1012.8 0.0
30/09:00pm 24.6 24.4 16.6 61 5.0 ENE 13 19 7 10 1013.6 1012.4 0.0
30/08:30pm 25.5 24.2 16.9 59 5.4 ENE 19 28 10 15 1013.1 1011.9 0.0
30/08:00pm 26.6 25.0 16.5 54 6.3 ENE 20 28 11 15 1012.8 1011.6 0.0
30/07:30pm 27.8 25.5 15.8 48 7.4 NE 22 30 12 16 1012.8 1011.6 0.0
30/07:00pm 28.4 26.5 15.7 46 7.9 NE 20 28 11 15 1012.6 1011.4 0.0
30/06:30pm 29.6 26.8 15.3 41 8.9 NE 24 33 13 18 1011.9 1010.7 0.0
30/06:00pm 31.3 28.2 14.4 35 10.4 NE 24 35 13 19 1011.2 1010.0 0.0
30/05:30pm 32.1 27.2 13.8 33 11.2 NE 32 41 17 22 1010.6 1009.4 0.0
30/05:00pm 33.2 28.7 13.8 31 11.9 ENE 30 43 16 23 1010.1 1008.9 0.0
30/04:30pm 34.6 31.0 11.7 25 13.7 E 22 28 12 15 1009.7 1008.5 0.0
30/04:00pm 34.9 31.1 11.3 24 14.1 ESE 22 30 12 16 1009.6 1008.4 0.0
30/03:30pm 35.7 32.0 10.0 21 15.0 E 20 32 11 17 1009.6 1008.4 0.0
30/03:00pm 37.2 34.5 8.9 18 16.4 NE 13 19 7 10 1009.6 1008.4 0.0
30/02:30pm 36.8 32.5 9.4 19 16.0 E 22 32 12 17 1009.9 1008.7 0.0
30/02:00pm 37.0 33.1 8.8 18 16.3 ESE 19 28 10 15 1010.4 1009.2 0.0
30/01:30pm 36.3 31.5 9.0 19 15.8 ENE 24 32 13 17 1010.7 1009.5 0.0
30/01:00pm 36.8 34.1 10.2 20 15.7 NE 15 20 8 11 1011.3 1010.1 0.0
30/12:30pm 35.9 32.0 9.4 20 15.4 E 20 28 11 15 1011.9 1010.7 0.0
30/12:00pm 35.4 32.2 11.1 23 14.4 E 19 30 10 16 1012.5 1011.3 0.0
30/11:30am 34.8 31.9 13.0 26 13.3 ESE 20 32 11 17 1013.1 1011.9 0.0
30/11:00am 33.6 31.7 15.1 33 11.6 ESE 19 24 10 13 1013.5 1012.3 0.0
30/10:30am 31.7 30.0 17.2 42 9.3 E 22 32 12 17 1013.8 1012.6 0.0
30/10:00am 31.9 30.4 17.8 43 9.1 ESE 22 28 12 15 1013.8 1012.6 0.0
30/09:30am 31.7 30.9 13.0 32 11.3 E 9 17 5 9 1014.0 1012.8 0.0
30/09:00am 30.1 29.4 14.2 38 9.7 N 11 15 6 8 1014.1 1012.9 0.0
30/08:30am 29.9 28.7 14.0 37 9.7 N 13 19 7 10 1013.9 1012.7 0.0
30/08:00am 28.8 27.2 13.9 40 9.0 N 15 20 8 11 1013.9 1012.7 0.0
30/07:30am 26.7 26.9 14.8 48 7.2 W 7 9 4 5 1014.0 1012.8 0.0
30/07:00am 22.9 23.3 15.2 62 4.6 SW 7 9 4 5 1014.2 1013.0 0.0
30/06:30am 23.0 23.4 15.3 62 4.6 E 7 11 4 6 1014.5 1013.3 0.0
30/06:00am 22.6 21.0 15.9 66 4.1 ESE 19 20 10 11 1014.8 1013.6 0.0
30/05:30am 22.5 21.5 16.5 69 3.7 ENE 17 22 9 12 1015.8 1014.7 0.0
30/05:00am 22.6 21.6 16.6 69 3.7 E 17 20 9 11 1015.9 1014.8 0.0
30/04:30am 22.4 22.3 16.0 67 3.9 E 11 13 6 7 1015.8 1014.7 0.0
30/04:00am 23.3 23.7 15.4 61 4.8 S 7 11 4 6 1015.6 1014.4 0.0
30/03:30am 23.6 23.0 15.6 61 4.9 SSW 13 20 7 11 1015.4 1014.2 0.0
30/03:00am 23.4 21.8 16.0 63 4.5 SW 19 26 10 14 1014.7 1013.5 0.0
30/02:30am 25.9 22.6 14.1 48 7.1 WSW 24 35 13 19 1014.1 1012.9 0.0
30/02:00am 24.9 24.6 14.4 52 6.3 NNW 9 11 5 6 1013.1 1011.9 0.0
30/01:30am 25.3 24.9 14.1 50 6.7 NNW 9 13 5 7 1012.5 1011.3 0.0
30/01:00am 25.2 24.5 13.1 47 7.1 NW 9 13 5 7 1012.9 1011.7 0.0
30/12:30am 25.4 24.0 13.3 47 7.1 N 13 17 7 9 1013.0 1011.8 0.0
30/12:00am 25.1 24.2 13.6 49 6.8 W 11 15 6 8 1013.2 1012.0 0.0
 
Date/Time
EST
Temp
°C
App
Temp
°C
Dew
Point
Rel
Hum
%
Delta-T
°C
Wind Press
QNH
hPa
Press
MSL
hPa
Rain
since 9 am
mm
Dir
 
Spd
km/h
Gust
km/h
Spd
kts
Gust
kts
29/11:30pm 25.7 25.0 14.2 49 6.9 WSW 11 13 6 7 1013.7 1012.5 0.0
29/11:00pm 24.7 24.0 12.0 45 7.3 N 7 15 4 8 1013.1 1011.9 0.0
29/10:30pm 26.9 25.5 12.2 40 8.6 ESE 11 17 6 9 1012.4 1011.2 0.0
29/10:00pm 27.4 25.7 14.8 46 7.7 SSE 17 20 9 11 1011.7 1010.5 0.0
29/09:30pm 29.7 26.0 10.3 30 11.1 S 20 30 11 16 1011.5 1010.3 0.0
29/09:00pm 32.9 29.4 5.5 18 14.8 NNE 13 20 7 11 1010.8 1009.6 0.0
29/08:30pm 32.3 28.3 6.5 20 14.1 WNW 17 26 9 14 1012.6 1011.4 0.0
29/08:00pm 34.0 26.7 4.6 16 15.7 NNE 32 50 17 27 1011.5 1010.3 0.0
29/07:48pm 32.8 26.9 7.6 21 14.0 SW 28 54 15 29 1012.5 1011.3 0.0
29/07:37pm 30.7 25.8 10.1 28 11.8 WNW 26 37 14 20 1012.8 1011.6 0.0
29/07:30pm 30.8 25.6 10.2 28 11.8 WNW 28 37 15 20 1012.5 1011.3 0.0
29/07:17pm 29.4 25.1 11.9 34 10.3 WNW 26 35 14 19 1012.6 1011.4 0.0
29/07:00pm 29.1 24.5 11.2 33 10.4 WNW 26 33 14 18 1012.1 1011.0 0.0
29/06:30pm 30.7 27.9 12.6 33 10.8 NNW 19 33 10 18 1011.2 1010.0 0.0
29/06:00pm 30.9 29.6 13.7 35 10.5 NNE 13 19 7 10 1011.0 1009.8 0.0
29/05:30pm 28.5 26.8 15.8 46 7.9 NW 19 26 10 14 1010.8 1009.6 0.0
29/05:00pm 32.6 30.2 8.8 23 13.5 SSW 11 13 6 7 1010.7 1009.5 0.0
29/04:30pm 32.3 26.2 9.8 25 12.9 ESE 32 44 17 24 1010.3 1009.1 0.0
29/04:17pm 34.5 28.6 7.5 19 15.1 SE 28 57 15 31 1010.0 1008.8 0.0
29/04:00pm 36.5 35.8 11.3 22 15.1 WSW 6 9 3 5 1009.9 1008.7 0.0
29/03:30pm 36.4 34.7 11.3 22 15.0 E 11 15 6 8 1010.0 1008.8 0.0
29/03:00pm 37.2 35.5 11.2 21 15.6 SE 11 17 6 9 1010.2 1009.0 0.0
29/02:30pm 37.6 35.4 10.8 20 16.0 N 13 19 7 10 1010.5 1009.3 0.0
29/02:00pm 38.2 37.3 11.3 20 16.2 S 7 11 4 6 1011.0 1009.8 0.0
29/01:30pm 37.0 36.4 12.4 23 15.0 E 7 11 4 6 1011.4 1010.2 0.0
29/01:00pm 35.9 34.5 12.2 24 14.4 NNW 11 17 6 9 1011.8 1010.6 0.0
29/12:30pm 35.8 34.7 12.1 24 14.3 W 9 15 5 8 1012.4 1011.2 0.0
29/12:00pm 34.9 34.2 11.9 24 13.8 ESE 7 13 4 7 1012.9 1011.7 0.0
29/11:30am 34.6 32.9 12.3 26 13.5 N 13 24 7 13 1013.6 1012.4 0.0
29/11:00am 33.5 32.2 12.5 28 12.6 ENE 11 20 6 11 1014.0 1012.8 0.0
29/10:30am 33.0 31.8 11.5 27 12.7 S 9 17 5 9 1014.4 1013.2 0.0
29/10:00am 32.4 30.8 11.6 28 12.3 E 11 17 6 9 1014.9 1013.7 0.0
29/09:30am 31.4 29.6 10.7 28 12.0 SSE 11 20 6 11 1015.0 1013.8 0.0
29/09:00am 31.2 30.2 11.1 29 11.7 SSE 7 15 4 8 1015.2 1014.0 1.0
29/08:30am 29.1 28.1 10.3 31 10.7 ENE 6 9 3 5 1015.2 1014.0 1.0
29/08:00am 28.1 25.9 10.8 34 9.9 WNW 13 17 7 9 1014.9 1013.7 1.0
29/07:30am 26.3 23.5 11.2 38 8.6 NW 17 22 9 12 1014.3 1013.1 1.0
29/07:00am 25.3 22.6 11.8 43 7.8 NW 17 20 9 11 1014.1 1012.9 1.0
29/06:30am 24.1 21.8 11.8 46 7.0 NW 15 20 8 11 1013.9 1012.7 1.0
29/06:00am 23.0 21.6 12.3 51 6.1 NNW 11 15 6 8 1013.5 1012.3 1.0
29/05:30am 22.6 22.0 13.4 56 5.4 N 9 13 5 7 1013.4 1012.2 1.0
29/05:00am 23.3 23.2 14.0 56 5.5 WNW 7 11 4 6 1013.1 1011.9 1.0
29/04:30am 23.4 23.7 16.0 63 4.5 WNW 9 11 5 6 1012.7 1011.5 1.0
29/04:00am 24.2 23.6 15.7 59 5.2 WNW 13 19 7 10 1012.9 1011.7 1.0
29/03:30am 23.1 21.7 16.6 67 4.0 N 19 22 10 12 1012.3 1011.1 1.0
29/03:00am 22.6 24.8 16.4 68 3.8 CALM 0 7 0 4 1012.8 1011.6 1.0
29/02:30am 23.3 24.4 16.6 66 4.1 NW 6 6 3 3 1012.8 1011.6 1.0
29/02:00am 23.9 24.8 16.7 64 4.5 NNE 7 11 4 6 1012.9 1011.7 1.0
29/01:30am 24.7 23.3 16.9 62 4.9 E 20 28 11 15 1013.0 1011.8 1.0
29/01:00am 25.3 24.1 16.2 57 5.6 E 17 22 9 12 1013.8 1012.6 1.0
29/12:30am 25.5 24.1 14.6 51 6.6 E 15 17 8 9 1013.7 1012.5 1.0
29/12:00am 26.9 25.5 14.6 46 7.5 ESE 15 20 8 11 1013.3 1012.1 1.0
 
Date/Time
EST
Temp
°C
App
Temp
°C
Dew
Point
Rel
Hum
%
Delta-T
°C
Wind Press
QNH
hPa
Press
MSL
hPa
Rain
since 9 am
mm
Dir
 
Spd
km/h
Gust
km/h
Spd
kts
Gust
kts
28/11:30pm 28.1 28.5 15.4 46 7.8 NNE 7 9 4 5 1013.7 1012.5 1.0
28/11:00pm 27.8 27.0 15.1 46 7.8 ESE 13 17 7 9 1014.0 1012.8 1.0
28/10:30pm 29.6 30.0 15.3 41 8.9 SE 7 11 4 6 1013.8 1012.6 1.0
28/10:00pm 27.8 26.0 15.5 47 7.6 N 19 24 10 13 1012.6 1011.4 1.0
28/09:30pm 27.6 25.8 15.9 49 7.3 N 20 24 11 13 1012.1 1011.0 1.0
28/09:00pm 28.5 27.0 15.4 45 8.1 N 17 22 9 12 1012.0 1010.9 1.0
28/08:30pm 30.6 28.3 14.7 38 9.8 N 20 28 11 15 1011.7 1010.5 1.0
28/08:00pm 29.8 28.6 15.1 40 9.1 ENE 15 24 8 13 1011.3 1010.1 1.0
28/07:30pm 31.6 28.7 12.9 32 11.2 ENE 20 30 11 16 1010.8 1009.6 1.0
28/07:00pm 32.3 32.5 15.7 36 10.4 NNE 9 13 5 7 1010.4 1009.2 1.0
28/06:32pm 30.5 24.8 11.0 30 11.3 ENE 32 54 17 29 1009.9 1008.7 1.0
28/06:30pm 32.8 34.0 14.9 34 11.1 W 2 24 1 13 1010.2 1009.0 0.2
28/06:00pm 36.6 34.7 6.7 16 16.7 WNW 6 7 3 4 1009.8 1008.6 0.0
28/05:30pm 37.8 35.9 6.7 15 17.5 WSW 6 9 3 5 1009.6 1008.4 0.0
28/05:00pm 38.3 35.3 6.1 14 18.0 SW 11 17 6 9 1009.4 1008.2 0.0
28/04:30pm 38.2 35.8 7.0 15 17.7 SSE 9 19 5 10 1009.4 1008.2 0.0
28/04:00pm 38.9 37.2 7.6 15 18.0 SSW 6 17 3 9 1009.6 1008.4 0.0
28/03:30pm 38.8 36.5 7.5 15 17.9 NW 9 13 5 7 1009.7 1008.5 0.0
28/03:00pm 39.1 36.9 7.7 15 18.1 W 9 19 5 10 1009.9 1008.7 0.0
28/02:30pm 37.8 34.4 7.7 16 17.2 N 15 24 8 13 1010.4 1009.2 0.0
28/02:00pm 37.5 35.4 8.3 17 16.8 ENE 9 17 5 9 1010.8 1009.6 0.0
28/01:30pm 37.7 35.3 8.5 17 16.9 WNW 11 22 6 12 1011.4 1010.2 0.0
28/01:00pm 36.9 34.1 8.7 18 16.3 N 13 20 7 11 1011.8 1010.6 0.0
28/12:30pm 36.1 33.6 9.6 20 15.4 N 13 20 7 11 1012.4 1011.2 0.0
28/12:00pm 35.8 33.2 10.8 22 14.8 NNW 15 24 8 13 1012.9 1011.7 0.0
28/11:30am 34.8 33.3 10.6 23 14.2 N 9 19 5 10 1013.4 1012.2 0.0
28/11:00am 33.3 30.3 10.6 25 13.3 N 17 22 9 12 1013.9 1012.7 0.0
28/10:30am 31.9 29.7 12.2 30 11.7 N 15 20 8 11 1014.4 1013.2 0.0
28/10:00am 31.1 29.3 13.4 34 10.7 NW 15 22 8 12 1014.8 1013.6 0.0

Other Formats:

Comma delimited format used in spreadsheet applications
http://www.bom.gov.au/fwo/IDQ60801/IDQ60801.94397.axf

JavaScript Object Notation format (JSON) in row-major order
http://www.bom.gov.au/fwo/IDQ60801/IDQ60801.94397.json